sensor_id;sensor_type;location;lat;lon;timestamp;pressure;altitude;pressure_sealevel;temperature;humidity
47811;BME280;33575;52.600;7.318;2023-05-22T00:02:21;101346.79;;;20.38;86.73
47811;BME280;33575;52.600;7.318;2023-05-22T00:04:51;101343.03;;;20.31;86.71
47811;BME280;33575;52.600;7.318;2023-05-22T00:07:21;101335.27;;;20.28;87.66
47811;BME280;33575;52.600;7.318;2023-05-22T00:09:51;101334.98;;;20.28;87.26
47811;BME280;33575;52.600;7.318;2023-05-22T00:12:22;101343.61;;;20.27;87.38
47811;BME280;33575;52.600;7.318;2023-05-22T00:14:52;101342.81;;;20.31;87.24
47811;BME280;33575;52.600;7.318;2023-05-22T00:17:23;101340.47;;;20.36;87.07
47811;BME280;33575;52.600;7.318;2023-05-22T00:19:54;101335.71;;;20.40;87.18
47811;BME280;33575;52.600;7.318;2023-05-22T00:22:23;101338.46;;;20.44;86.57
47811;BME280;33575;52.600;7.318;2023-05-22T00:24:53;101342.72;;;20.47;86.45
47811;BME280;33575;52.600;7.318;2023-05-22T00:27:24;101336.15;;;20.45;87.61
47811;BME280;33575;52.600;7.318;2023-05-22T00:29:54;101324.90;;;20.26;89.40
47811;BME280;33575;52.600;7.318;2023-05-22T00:32:25;101320.83;;;20.04;90.45
47811;BME280;33575;52.600;7.318;2023-05-22T00:34:55;101316.76;;;20.02;89.13
47811;BME280;33575;52.600;7.318;2023-05-22T00:37:25;101320.26;;;20.06;88.39
47811;BME280;33575;52.600;7.318;2023-05-22T00:39:56;101317.66;;;20.13;88.36
47811;BME280;33575;52.600;7.318;2023-05-22T00:42:27;101318.56;;;20.11;89.53
47811;BME280;33575;52.600;7.318;2023-05-22T00:44:57;101313.76;;;20.03;90.16
47811;BME280;33575;52.600;7.318;2023-05-22T00:47:27;101311.98;;;19.94;90.50
47811;BME280;33575;52.600;7.318;2023-05-22T00:49:58;101310.17;;;19.95;89.56
47811;BME280;33575;52.600;7.318;2023-05-22T00:52:29;101306.88;;;20.02;88.73
47811;BME280;33575;52.600;7.318;2023-05-22T00:54:59;101307.33;;;20.09;88.67
47811;BME280;33575;52.600;7.318;2023-05-22T00:57:29;101304.33;;;20.15;88.58
47811;BME280;33575;52.600;7.318;2023-05-22T00:59:59;101307.52;;;20.21;88.01
47811;BME280;33575;52.600;7.318;2023-05-22T01:02:30;101306.29;;;20.27;87.43
47811;BME280;33575;52.600;7.318;2023-05-22T01:05:01;101306.23;;;20.31;87.35
47811;BME280;33575;52.600;7.318;2023-05-22T01:07:31;101308.68;;;20.35;86.94
47811;BME280;33575;52.600;7.318;2023-05-22T01:10:01;101311.03;;;20.39;87.08
47811;BME280;33575;52.600;7.318;2023-05-22T01:12:39;101312.79;;;20.40;87.14
47811;BME280;33575;52.600;7.318;2023-05-22T01:15:09;101312.67;;;20.39;87.20
47811;BME280;33575;52.600;7.318;2023-05-22T01:17:38;101311.28;;;20.36;86.96
47811;BME280;33575;52.600;7.318;2023-05-22T01:20:09;101311.38;;;20.35;86.93
47811;BME280;33575;52.600;7.318;2023-05-22T01:22:46;101302.81;;;20.34;86.91
47811;BME280;33575;52.600;7.318;2023-05-22T01:25:11;101304.82;;;20.29;87.66
47811;BME280;33575;52.600;7.318;2023-05-22T01:27:41;101302.16;;;20.27;87.48
47811;BME280;33575;52.600;7.318;2023-05-22T01:30:15;101296.70;;;20.28;86.97
47811;BME280;33575;52.600;7.318;2023-05-22T01:32:35;101292.64;;;20.30;86.71
47811;BME280;33575;52.600;7.318;2023-05-22T01:35:07;101292.37;;;20.26;87.62
47811;BME280;33575;52.600;7.318;2023-05-22T01:37:35;101291.95;;;20.23;87.63
47811;BME280;33575;52.600;7.318;2023-05-22T01:40:05;101290.77;;;20.22;87.68
47811;BME280;33575;52.600;7.318;2023-05-22T01:42:34;101284.18;;;20.19;88.05
47811;BME280;33575;52.600;7.318;2023-05-22T01:45:06;101283.40;;;20.18;87.99
47811;BME280;33575;52.600;7.318;2023-05-22T01:47:35;101287.26;;;20.18;87.66
47811;BME280;33575;52.600;7.318;2023-05-22T01:50:06;101288.14;;;20.17;87.64
47811;BME280;33575;52.600;7.318;2023-05-22T01:52:41;101285.74;;;20.18;87.45
47811;BME280;33575;52.600;7.318;2023-05-22T01:55:11;101285.15;;;20.16;87.95
47811;BME280;33575;52.600;7.318;2023-05-22T01:57:42;101283.07;;;20.17;87.69
47811;BME280;33575;52.600;7.318;2023-05-22T02:00:10;101273.80;;;20.18;87.28
47811;BME280;33575;52.600;7.318;2023-05-22T02:02:38;101270.82;;;20.18;87.56
47811;BME280;33575;52.600;7.318;2023-05-22T02:05:09;101258.83;;;20.14;87.78
47811;BME280;33575;52.600;7.318;2023-05-22T02:07:39;101263.59;;;20.11;87.69
47811;BME280;33575;52.600;7.318;2023-05-22T02:10:10;101266.75;;;20.08;87.49
47811;BME280;33575;52.600;7.318;2023-05-22T02:12:40;101266.16;;;20.08;87.62
47811;BME280;33575;52.600;7.318;2023-05-22T02:15:10;101268.66;;;20.07;87.60
47811;BME280;33575;52.600;7.318;2023-05-22T02:17:40;101273.18;;;20.06;87.68
47811;BME280;33575;52.600;7.318;2023-05-22T02:20:13;101285.34;;;20.04;87.77
47811;BME280;33575;52.600;7.318;2023-05-22T02:22:42;101284.90;;;20.00;87.47
47811;BME280;33575;52.600;7.318;2023-05-22T02:25:13;101286.97;;;20.01;87.34
47811;BME280;33575;52.600;7.318;2023-05-22T02:27:43;101292.14;;;19.99;87.33
47811;BME280;33575;52.600;7.318;2023-05-22T02:30:14;101291.30;;;19.93;87.68
47811;BME280;33575;52.600;7.318;2023-05-22T02:32:43;101293.23;;;19.87;88.12
47811;BME280;33575;52.600;7.318;2023-05-22T02:35:14;101287.47;;;19.84;87.98
47811;BME280;33575;52.600;7.318;2023-05-22T02:37:44;101288.14;;;19.86;87.90
47811;BME280;33575;52.600;7.318;2023-05-22T02:40:15;101285.87;;;19.85;87.95
47811;BME280;33575;52.600;7.318;2023-05-22T02:42:45;101286.00;;;19.85;87.84
47811;BME280;33575;52.600;7.318;2023-05-22T02:45:16;101281.91;;;19.87;87.92
47811;BME280;33575;52.600;7.318;2023-05-22T02:47:46;101278.29;;;19.86;87.72
47811;BME280;33575;52.600;7.318;2023-05-22T02:50:16;101276.00;;;19.84;87.64
47811;BME280;33575;52.600;7.318;2023-05-22T02:52:46;101275.46;;;19.83;87.40
47811;BME280;33575;52.600;7.318;2023-05-22T02:55:17;101268.82;;;19.80;87.63
47811;BME280;33575;52.600;7.318;2023-05-22T02:57:47;101267.66;;;19.74;88.52
47811;BME280;33575;52.600;7.318;2023-05-22T03:00:18;101262.59;;;19.72;88.90
47811;BME280;33575;52.600;7.318;2023-05-22T03:02:47;101249.90;;;19.67;88.72
47811;BME280;33575;52.600;7.318;2023-05-22T03:05:19;101244.06;;;19.64;89.35
47811;BME280;33575;52.600;7.318;2023-05-22T03:07:49;101231.17;;;19.63;89.09
47811;BME280;33575;52.600;7.318;2023-05-22T03:10:19;101218.24;;;19.61;90.39
47811;BME280;33575;52.600;7.318;2023-05-22T03:12:49;101200.21;;;19.51;91.07
47811;BME280;33575;52.600;7.318;2023-05-22T03:15:19;101189.93;;;19.50;90.24
47811;BME280;33575;52.600;7.318;2023-05-22T03:17:50;101193.31;;;19.49;89.89
47811;BME280;33575;52.600;7.318;2023-05-22T03:20:20;101193.41;;;19.45;90.05
47811;BME280;33575;52.600;7.318;2023-05-22T03:22:50;101185.25;;;19.42;89.87
47811;BME280;33575;52.600;7.318;2023-05-22T03:25:21;101185.06;;;19.46;90.25
47811;BME280;33575;52.600;7.318;2023-05-22T03:27:51;101183.14;;;19.49;89.93
47811;BME280;33575;52.600;7.318;2023-05-22T03:30:21;101182.05;;;19.51;90.09
47811;BME280;33575;52.600;7.318;2023-05-22T03:32:52;101178.95;;;19.51;89.83
47811;BME280;33575;52.600;7.318;2023-05-22T03:35:22;101183.61;;;19.50;90.01
47811;BME280;33575;52.600;7.318;2023-05-22T03:37:52;101182.80;;;19.49;89.86
47811;BME280;33575;52.600;7.318;2023-05-22T03:40:22;101173.45;;;19.50;89.83
47811;BME280;33575;52.600;7.318;2023-05-22T03:42:53;101174.68;;;19.52;89.97
47811;BME280;33575;52.600;7.318;2023-05-22T03:45:23;101167.18;;;19.53;89.84
47811;BME280;33575;52.600;7.318;2023-05-22T03:47:54;101171.64;;;19.51;90.07
47811;BME280;33575;52.600;7.318;2023-05-22T03:50:24;101173.87;;;19.50;90.15
47811;BME280;33575;52.600;7.318;2023-05-22T03:52:54;101171.07;;;19.48;90.21
47811;BME280;33575;52.600;7.318;2023-05-22T03:55:25;101172.67;;;19.46;89.87
47811;BME280;33575;52.600;7.318;2023-05-22T03:57:55;101171.65;;;19.39;90.24
47811;BME280;33575;52.600;7.318;2023-05-22T04:00:27;101168.28;;;19.34;90.72
47811;BME280;33575;52.600;7.318;2023-05-22T04:02:55;101165.16;;;19.32;90.53
47811;BME280;33575;52.600;7.318;2023-05-22T04:05:26;101164.70;;;19.28;90.01
47811;BME280;33575;52.600;7.318;2023-05-22T04:07:56;101164.32;;;19.24;89.69
47811;BME280;33575;52.600;7.318;2023-05-22T04:10:26;101164.14;;;19.23;89.75
47811;BME280;33575;52.600;7.318;2023-05-22T04:12:58;101157.77;;;19.20;89.77
47811;BME280;33575;52.600;7.318;2023-05-22T04:15:27;101149.42;;;19.18;89.74
47811;BME280;33575;52.600;7.318;2023-05-22T04:17:58;101151.41;;;19.20;89.49
47811;BME280;33575;52.600;7.318;2023-05-22T04:20:28;101149.33;;;19.22;89.36
47811;BME280;33575;52.600;7.318;2023-05-22T04:22:59;101145.55;;;19.19;89.96
47811;BME280;33575;52.600;7.318;2023-05-22T04:25:29;101142.62;;;19.16;89.78
47811;BME280;33575;52.600;7.318;2023-05-22T04:28:00;101147.05;;;19.13;90.69
47811;BME280;33575;52.600;7.318;2023-05-22T04:30:31;101146.18;;;19.05;90.64
47811;BME280;33575;52.600;7.318;2023-05-22T04:33:01;101144.64;;;19.06;90.29
47811;BME280;33575;52.600;7.318;2023-05-22T04:35:31;101143.59;;;19.06;91.32
47811;BME280;33575;52.600;7.318;2023-05-22T04:38:02;101147.28;;;19.07;91.05
47811;BME280;33575;52.600;7.318;2023-05-22T04:40:32;101144.36;;;19.08;91.30
47811;BME280;33575;52.600;7.318;2023-05-22T04:43:03;101142.65;;;19.09;91.32
47811;BME280;33575;52.600;7.318;2023-05-22T04:45:34;101138.49;;;19.04;92.26
47811;BME280;33575;52.600;7.318;2023-05-22T04:48:04;101133.49;;;18.99;92.41
47811;BME280;33575;52.600;7.318;2023-05-22T04:50:34;101131.05;;;18.83;92.95
47811;BME280;33575;52.600;7.318;2023-05-22T04:53:04;101128.40;;;18.73;93.18
47811;BME280;33575;52.600;7.318;2023-05-22T04:55:34;101128.03;;;18.63;93.40
47811;BME280;33575;52.600;7.318;2023-05-22T04:58:04;101131.90;;;18.67;92.84
47811;BME280;33575;52.600;7.318;2023-05-22T05:00:35;101141.97;;;18.75;92.45
47811;BME280;33575;52.600;7.318;2023-05-22T05:03:05;101155.93;;;18.82;93.32
47811;BME280;33575;52.600;7.318;2023-05-22T05:05:35;101157.73;;;18.89;92.29
47811;BME280;33575;52.600;7.318;2023-05-22T05:08:05;101159.17;;;18.95;91.94
47811;BME280;33575;52.600;7.318;2023-05-22T05:10:36;101158.73;;;18.87;92.58
47811;BME280;33575;52.600;7.318;2023-05-22T05:13:06;101151.79;;;18.69;93.97
47811;BME280;33575;52.600;7.318;2023-05-22T05:15:36;101149.86;;;18.72;92.80
47811;BME280;33575;52.600;7.318;2023-05-22T05:18:07;101153.03;;;18.67;93.82
47811;BME280;33575;52.600;7.318;2023-05-22T05:20:38;101152.53;;;18.61;94.78
47811;BME280;33575;52.600;7.318;2023-05-22T05:23:08;101156.67;;;18.62;94.02
47811;BME280;33575;52.600;7.318;2023-05-22T05:25:39;101162.95;;;18.61;94.33
47811;BME280;33575;52.600;7.318;2023-05-22T05:28:09;101171.65;;;18.63;94.76
47811;BME280;33575;52.600;7.318;2023-05-22T05:30:40;101177.90;;;18.58;94.92
47811;BME280;33575;52.600;7.318;2023-05-22T05:33:10;101182.60;;;18.59;94.77
47811;BME280;33575;52.600;7.318;2023-05-22T05:35:44;101189.57;;;18.49;95.39
47811;BME280;33575;52.600;7.318;2023-05-22T05:38:12;101195.87;;;18.53;95.33
47811;BME280;33575;52.600;7.318;2023-05-22T05:40:42;101195.22;;;18.50;97.00
47811;BME280;33575;52.600;7.318;2023-05-22T05:43:13;101196.58;;;18.47;96.25
47811;BME280;33575;52.600;7.318;2023-05-22T05:45:43;101200.79;;;18.49;96.80
47811;BME280;33575;52.600;7.318;2023-05-22T05:48:14;101206.01;;;18.45;97.02
47811;BME280;33575;52.600;7.318;2023-05-22T05:50:44;101212.95;;;18.48;97.01
47811;BME280;33575;52.600;7.318;2023-05-22T05:53:15;101223.48;;;18.53;96.01
47811;BME280;33575;52.600;7.318;2023-05-22T05:55:45;101228.39;;;18.51;97.30
47811;BME280;33575;52.600;7.318;2023-05-22T05:58:16;101228.79;;;18.54;96.79
47811;BME280;33575;52.600;7.318;2023-05-22T06:00:46;101238.39;;;18.56;97.18
47811;BME280;33575;52.600;7.318;2023-05-22T06:03:17;101236.47;;;18.62;96.58
47811;BME280;33575;52.600;7.318;2023-05-22T06:05:47;101242.37;;;18.56;97.45
47811;BME280;33575;52.600;7.318;2023-05-22T06:08:17;101241.54;;;18.53;96.37
47811;BME280;33575;52.600;7.318;2023-05-22T06:10:48;101242.45;;;18.47;96.25
47811;BME280;33575;52.600;7.318;2023-05-22T06:13:18;101241.73;;;18.56;96.08
47811;BME280;33575;52.600;7.318;2023-05-22T06:15:48;101245.75;;;18.56;96.29
47811;BME280;33575;52.600;7.318;2023-05-22T06:18:19;101246.55;;;18.66;96.32
47811;BME280;33575;52.600;7.318;2023-05-22T06:20:50;101247.62;;;18.77;95.68
47811;BME280;33575;52.600;7.318;2023-05-22T06:23:20;101245.32;;;18.86;94.98
47811;BME280;33575;52.600;7.318;2023-05-22T06:25:50;101245.90;;;18.93;94.26
47811;BME280;33575;52.600;7.318;2023-05-22T06:28:21;101246.16;;;19.03;93.78
47811;BME280;33575;52.600;7.318;2023-05-22T06:30:52;101245.75;;;19.09;94.27
47811;BME280;33575;52.600;7.318;2023-05-22T06:33:22;101241.92;;;19.10;93.76
47811;BME280;33575;52.600;7.318;2023-05-22T06:35:52;101246.41;;;19.11;93.54
47811;BME280;33575;52.600;7.318;2023-05-22T06:38:23;101252.93;;;19.22;93.13
47811;BME280;33575;52.600;7.318;2023-05-22T06:40:54;101249.38;;;19.19;91.91
47811;BME280;33575;52.600;7.318;2023-05-22T06:43:24;101254.17;;;19.28;92.37
47811;BME280;33575;52.600;7.318;2023-05-22T06:45:54;101256.61;;;19.22;92.34
47811;BME280;33575;52.600;7.318;2023-05-22T06:48:24;101256.61;;;19.25;91.00
47811;BME280;33575;52.600;7.318;2023-05-22T06:50:55;101258.88;;;19.33;91.60
47811;BME280;33575;52.600;7.318;2023-05-22T06:53:25;101259.55;;;19.37;92.28
47811;BME280;33575;52.600;7.318;2023-05-22T06:55:55;101253.97;;;19.45;89.27
47811;BME280;33575;52.600;7.318;2023-05-22T06:58:25;101251.84;;;19.44;90.31
47811;BME280;33575;52.600;7.318;2023-05-22T07:00:55;101248.00;;;19.47;89.55
47811;BME280;33575;52.600;7.318;2023-05-22T07:03:26;101245.65;;;19.41;89.58
47811;BME280;33575;52.600;7.318;2023-05-22T07:05:56;101246.36;;;19.37;88.75
47811;BME280;33575;52.600;7.318;2023-05-22T07:08:27;101250.70;;;19.55;88.69
47811;BME280;33575;52.600;7.318;2023-05-22T07:10:56;101252.11;;;19.69;89.10
47811;BME280;33575;52.600;7.318;2023-05-22T07:13:26;101257.82;;;19.71;88.60
47811;BME280;33575;52.600;7.318;2023-05-22T07:15:57;101261.16;;;19.73;87.64
47811;BME280;33575;52.600;7.318;2023-05-22T07:18:27;101262.64;;;19.79;87.83
47811;BME280;33575;52.600;7.318;2023-05-22T07:20:57;101263.45;;;19.93;87.55
47811;BME280;33575;52.600;7.318;2023-05-22T07:23:28;101261.38;;;19.99;86.22
47811;BME280;33575;52.600;7.318;2023-05-22T07:25:58;101265.22;;;20.05;87.85
47811;BME280;33575;52.600;7.318;2023-05-22T07:28:28;101267.25;;;20.17;86.99
47811;BME280;33575;52.600;7.318;2023-05-22T07:30:59;101263.62;;;20.22;87.65
47811;BME280;33575;52.600;7.318;2023-05-22T07:33:29;101264.46;;;20.27;87.59
47811;BME280;33575;52.600;7.318;2023-05-22T07:36:00;101263.19;;;20.33;86.79
47811;BME280;33575;52.600;7.318;2023-05-22T07:38:30;101267.30;;;20.44;88.27
47811;BME280;33575;52.600;7.318;2023-05-22T07:41:00;101266.25;;;20.63;85.75
47811;BME280;33575;52.600;7.318;2023-05-22T07:43:30;101266.67;;;20.69;85.07
47811;BME280;33575;52.600;7.318;2023-05-22T07:46:01;101264.31;;;20.83;84.75
47811;BME280;33575;52.600;7.318;2023-05-22T07:48:31;101264.55;;;20.92;84.86
47811;BME280;33575;52.600;7.318;2023-05-22T07:51:01;101259.71;;;20.96;83.23
47811;BME280;33575;52.600;7.318;2023-05-22T07:53:31;101259.62;;;21.06;83.86
47811;BME280;33575;52.600;7.318;2023-05-22T07:56:02;101263.70;;;21.08;82.60
47811;BME280;33575;52.600;7.318;2023-05-22T07:58:32;101261.12;;;21.07;81.44
47811;BME280;33575;52.600;7.318;2023-05-22T08:01:02;101261.85;;;21.11;82.78
47811;BME280;33575;52.600;7.318;2023-05-22T08:03:33;101263.77;;;21.17;81.80
47811;BME280;33575;52.600;7.318;2023-05-22T08:06:04;101260.55;;;21.21;83.50
47811;BME280;33575;52.600;7.318;2023-05-22T08:08:34;101259.93;;;21.38;83.70
47811;BME280;33575;52.600;7.318;2023-05-22T08:11:05;101260.73;;;21.48;83.40
47811;BME280;33575;52.600;7.318;2023-05-22T08:13:35;101262.12;;;21.50;81.83
47811;BME280;33575;52.600;7.318;2023-05-22T08:16:06;101259.40;;;21.64;82.41
47811;BME280;33575;52.600;7.318;2023-05-22T08:18:35;101259.09;;;21.53;80.72
47811;BME280;33575;52.600;7.318;2023-05-22T08:21:06;101256.79;;;21.69;82.56
47811;BME280;33575;52.600;7.318;2023-05-22T08:23:36;101253.35;;;21.82;81.56
47811;BME280;33575;52.600;7.318;2023-05-22T08:26:07;101254.29;;;21.81;81.59
47811;BME280;33575;52.600;7.318;2023-05-22T08:28:37;101252.06;;;21.71;81.28
47811;BME280;33575;52.600;7.318;2023-05-22T08:31:07;101254.18;;;21.63;82.01
47811;BME280;33575;52.600;7.318;2023-05-22T08:33:38;101249.33;;;21.72;80.67
47811;BME280;33575;52.600;7.318;2023-05-22T08:36:08;101250.99;;;21.72;81.46
47811;BME280;33575;52.600;7.318;2023-05-22T08:38:38;101249.66;;;21.85;80.95
47811;BME280;33575;52.600;7.318;2023-05-22T08:41:08;101252.01;;;21.88;80.53
47811;BME280;33575;52.600;7.318;2023-05-22T08:43:40;101251.77;;;22.02;79.82
47811;BME280;33575;52.600;7.318;2023-05-22T08:46:09;101254.66;;;22.12;80.31
47811;BME280;33575;52.600;7.318;2023-05-22T08:48:39;101251.73;;;22.04;79.31
47811;BME280;33575;52.600;7.318;2023-05-22T08:51:13;101251.97;;;22.10;80.19
47811;BME280;33575;52.600;7.318;2023-05-22T08:53:41;101253.80;;;22.18;77.95
47811;BME280;33575;52.600;7.318;2023-05-22T08:56:12;101249.45;;;22.33;79.54
47811;BME280;33575;52.600;7.318;2023-05-22T08:58:42;101245.85;;;22.47;80.22
47811;BME280;33575;52.600;7.318;2023-05-22T09:01:12;101248.97;;;22.51;78.33
47811;BME280;33575;52.600;7.318;2023-05-22T09:03:44;101247.78;;;22.57;78.32
47811;BME280;33575;52.600;7.318;2023-05-22T09:06:13;101246.88;;;22.80;79.55
47811;BME280;33575;52.600;7.318;2023-05-22T09:08:43;101244.92;;;22.85;77.31
47811;BME280;33575;52.600;7.318;2023-05-22T09:11:13;101246.39;;;22.87;77.40
47811;BME280;33575;52.600;7.318;2023-05-22T09:13:44;101240.30;;;22.92;76.62
47811;BME280;33575;52.600;7.318;2023-05-22T09:16:16;101244.82;;;22.99;76.69
47811;BME280;33575;52.600;7.318;2023-05-22T09:18:45;101240.50;;;23.03;75.10
47811;BME280;33575;52.600;7.318;2023-05-22T09:21:26;101241.07;;;23.11;76.77
47811;BME280;33575;52.600;7.318;2023-05-22T09:23:48;101240.32;;;23.15;76.48
47811;BME280;33575;52.600;7.318;2023-05-22T09:26:17;101235.19;;;23.29;77.24
47811;BME280;33575;52.600;7.318;2023-05-22T09:28:47;101236.64;;;23.39;75.72
47811;BME280;33575;52.600;7.318;2023-05-22T09:31:18;101237.16;;;23.48;75.46
47811;BME280;33575;52.600;7.318;2023-05-22T09:33:48;101236.36;;;23.49;75.20
47811;BME280;33575;52.600;7.318;2023-05-22T09:36:19;101233.09;;;23.53;74.95
47811;BME280;33575;52.600;7.318;2023-05-22T09:38:53;101235.24;;;23.45;74.55
47811;BME280;33575;52.600;7.318;2023-05-22T09:41:21;101231.74;;;23.59;74.75
47811;BME280;33575;52.600;7.318;2023-05-22T09:43:51;101227.86;;;23.61;74.04
47811;BME280;33575;52.600;7.318;2023-05-22T09:46:22;101229.21;;;23.60;74.78
47811;BME280;33575;52.600;7.318;2023-05-22T09:48:52;101226.55;;;23.79;75.78
47811;BME280;33575;52.600;7.318;2023-05-22T09:51:22;101227.07;;;23.86;74.01
47811;BME280;33575;52.600;7.318;2023-05-22T09:53:57;101227.99;;;23.91;74.41
47811;BME280;33575;52.600;7.318;2023-05-22T09:56:31;101224.67;;;24.08;76.52
47811;BME280;33575;52.600;7.318;2023-05-22T09:58:54;101223.42;;;24.30;75.97
47811;BME280;33575;52.600;7.318;2023-05-22T10:01:26;101228.29;;;24.45;72.72
47811;BME280;33575;52.600;7.318;2023-05-22T10:03:56;101225.11;;;24.57;72.46
47811;BME280;33575;52.600;7.318;2023-05-22T10:06:26;101223.34;;;24.69;72.82
47811;BME280;33575;52.600;7.318;2023-05-22T10:09:01;101222.63;;;24.70;71.44
47811;BME280;33575;52.600;7.318;2023-05-22T10:11:29;101221.70;;;24.79;72.44
47811;BME280;33575;52.600;7.318;2023-05-22T10:13:58;101223.00;;;24.80;71.97
47811;BME280;33575;52.600;7.318;2023-05-22T10:16:29;101219.12;;;24.82;72.25
47811;BME280;33575;52.600;7.318;2023-05-22T10:19:00;101215.09;;;24.82;69.74
47811;BME280;33575;52.600;7.318;2023-05-22T10:21:30;101215.15;;;24.78;70.32
47811;BME280;33575;52.600;7.318;2023-05-22T10:24:00;101213.25;;;24.60;70.12
47811;BME280;33575;52.600;7.318;2023-05-22T10:26:32;101210.67;;;24.45;70.13
47811;BME280;33575;52.600;7.318;2023-05-22T10:29:09;101208.25;;;24.49;71.02
47811;BME280;33575;52.600;7.318;2023-05-22T10:31:39;101207.78;;;24.45;71.60
47811;BME280;33575;52.600;7.318;2023-05-22T10:34:08;101202.28;;;24.57;72.41
47811;BME280;33575;52.600;7.318;2023-05-22T10:36:47;101204.37;;;24.60;70.67
47811;BME280;33575;52.600;7.318;2023-05-22T10:39:11;101203.83;;;24.66;70.56
47811;BME280;33575;52.600;7.318;2023-05-22T10:41:34;101202.61;;;24.60;68.46
47811;BME280;33575;52.600;7.318;2023-05-22T10:44:04;101201.40;;;24.50;70.79
47811;BME280;33575;52.600;7.318;2023-05-22T10:46:35;101198.93;;;24.61;70.19
47811;BME280;33575;52.600;7.318;2023-05-22T10:49:05;101197.67;;;24.57;69.58
47811;BME280;33575;52.600;7.318;2023-05-22T10:51:35;101194.57;;;24.71;70.98
47811;BME280;33575;52.600;7.318;2023-05-22T10:54:06;101197.46;;;24.66;70.20
47811;BME280;33575;52.600;7.318;2023-05-22T10:56:37;101195.83;;;24.72;70.26
47811;BME280;33575;52.600;7.318;2023-05-22T10:59:07;101195.07;;;24.64;70.19
47811;BME280;33575;52.600;7.318;2023-05-22T11:01:39;101196.72;;;24.71;70.40
47811;BME280;33575;52.600;7.318;2023-05-22T11:04:10;101196.69;;;24.78;72.55
47811;BME280;33575;52.600;7.318;2023-05-22T11:06:40;101191.29;;;24.86;72.09
47811;BME280;33575;52.600;7.318;2023-05-22T11:09:19;101189.71;;;24.85;69.39
47811;BME280;33575;52.600;7.318;2023-05-22T11:11:40;101189.32;;;24.82;70.12
47811;BME280;33575;52.600;7.318;2023-05-22T11:14:12;101185.43;;;24.94;70.71
47811;BME280;33575;52.600;7.318;2023-05-22T11:16:42;101186.83;;;25.01;70.96
47811;BME280;33575;52.600;7.318;2023-05-22T11:19:20;101185.38;;;25.00;70.10
47811;BME280;33575;52.600;7.318;2023-05-22T11:21:44;101188.47;;;24.87;70.01
47811;BME280;33575;52.600;7.318;2023-05-22T11:24:15;101190.38;;;24.98;70.68
47811;BME280;33575;52.600;7.318;2023-05-22T11:29:14;101188.22;;;25.04;70.47
47811;BME280;33575;52.600;7.318;2023-05-22T11:31:44;101192.98;;;25.08;68.83
47811;BME280;33575;52.600;7.318;2023-05-22T11:34:15;101192.01;;;25.17;70.88
47811;BME280;33575;52.600;7.318;2023-05-22T11:36:46;101190.64;;;25.24;70.59
47811;BME280;33575;52.600;7.318;2023-05-22T11:39:16;101186.84;;;25.33;70.58
47811;BME280;33575;52.600;7.318;2023-05-22T11:41:46;101187.16;;;25.33;68.45
47811;BME280;33575;52.600;7.318;2023-05-22T11:44:16;101184.79;;;25.41;68.53
47811;BME280;33575;52.600;7.318;2023-05-22T11:46:47;101180.51;;;25.42;67.79
47811;BME280;33575;52.600;7.318;2023-05-22T11:49:17;101178.88;;;25.60;68.64
47811;BME280;33575;52.600;7.318;2023-05-22T11:51:47;101179.60;;;25.63;68.00
47811;BME280;33575;52.600;7.318;2023-05-22T11:54:18;101175.71;;;25.75;68.20
47811;BME280;33575;52.600;7.318;2023-05-22T11:56:48;101174.66;;;25.84;69.06
47811;BME280;33575;52.600;7.318;2023-05-22T11:59:20;101171.24;;;25.96;69.93
47811;BME280;33575;52.600;7.318;2023-05-22T12:01:49;101169.67;;;26.07;69.08
47811;BME280;33575;52.600;7.318;2023-05-22T12:04:21;101166.19;;;26.18;68.14
47811;BME280;33575;52.600;7.318;2023-05-22T12:06:51;101164.00;;;26.22;67.93
47811;BME280;33575;52.600;7.318;2023-05-22T12:09:21;101167.14;;;26.27;69.19
47811;BME280;33575;52.600;7.318;2023-05-22T12:11:54;101166.38;;;26.32;68.29
47811;BME280;33575;52.600;7.318;2023-05-22T12:14:24;101166.75;;;26.29;64.89
47811;BME280;33575;52.600;7.318;2023-05-22T12:16:51;101165.38;;;26.30;66.72
47811;BME280;33575;52.600;7.318;2023-05-22T12:19:24;101160.14;;;26.27;65.98
47811;BME280;33575;52.600;7.318;2023-05-22T12:21:53;101160.49;;;26.06;65.05
47811;BME280;33575;52.600;7.318;2023-05-22T12:24:22;101156.62;;;25.93;66.15
47811;BME280;33575;52.600;7.318;2023-05-22T12:26:52;101155.44;;;25.88;66.63
47811;BME280;33575;52.600;7.318;2023-05-22T12:29:23;101159.26;;;25.96;67.44
47811;BME280;33575;52.600;7.318;2023-05-22T12:31:53;101156.04;;;25.89;67.28
47811;BME280;33575;52.600;7.318;2023-05-22T12:34:23;101153.17;;;25.91;67.19
47811;BME280;33575;52.600;7.318;2023-05-22T12:36:54;101158.02;;;26.11;68.13
47811;BME280;33575;52.600;7.318;2023-05-22T12:39:24;101153.02;;;26.21;67.40
47811;BME280;33575;52.600;7.318;2023-05-22T12:41:55;101156.17;;;26.28;67.16
47811;BME280;33575;52.600;7.318;2023-05-22T12:44:25;101152.68;;;26.26;67.24
47811;BME280;33575;52.600;7.318;2023-05-22T12:46:55;101151.06;;;26.19;65.68
47811;BME280;33575;52.600;7.318;2023-05-22T12:49:25;101149.74;;;25.86;66.12
47811;BME280;33575;52.600;7.318;2023-05-22T12:51:56;101144.51;;;25.94;66.80
47811;BME280;33575;52.600;7.318;2023-05-22T12:54:26;101142.16;;;25.94;66.26
47811;BME280;33575;52.600;7.318;2023-05-22T12:56:57;101143.34;;;26.09;67.46
47811;BME280;33575;52.600;7.318;2023-05-22T12:59:28;101140.97;;;26.23;66.09
47811;BME280;33575;52.600;7.318;2023-05-22T13:01:59;101143.00;;;26.18;65.44
47811;BME280;33575;52.600;7.318;2023-05-22T13:04:29;101138.40;;;26.24;65.84
47811;BME280;33575;52.600;7.318;2023-05-22T13:07:00;101140.98;;;26.19;65.83
47811;BME280;33575;52.600;7.318;2023-05-22T13:09:30;101141.00;;;25.93;65.91